Time;durP1;ratioP1;P1;durP2;ratioP2;P2;SDS_P1;SDS_P2;PMS_P1;PMS_P2;Temp;Humidity;BMP_temperature;BMP_pressure;BME280_temperature;BME280_humidity;BME280_pressure;Samples;Min_cycle;Max_cycle;Signal;HPM_P1;HPM_P2
2023/04/04 00:01:17;;;;;;;7.50;3.38;;;;;;;-1.35;91.57;102876.34;5072649;28;20032;-78
2023/04/04 00:03:43;;;;;;;8.40;3.50;;;;;;;-0.68;92.08;102992.56;5072830;28;20032;-79
2023/04/04 00:06:08;;;;;;;7.03;3.20;;;;;;;-0.97;92.47;102948.03;5072588;28;20025;-78
2023/04/04 00:08:33;;;;;;;6.60;3.00;;;;;;;-0.69;92.07;103005.19;5072641;28;20054;-79
2023/04/04 00:11:01;;;;;;;8.68;3.30;;;;;;;-0.73;92.52;103000.91;5072382;28;20046;-79
2023/04/04 00:13:26;;;;;;;11.10;3.50;;;;;;;-0.75;93.11;103015.25;5072482;28;20366;-78
2023/04/04 00:15:53;;;;;;;9.38;3.80;;;;;;;-0.79;92.38;103013.44;5054208;28;20047;-79
2023/04/04 00:18:18;;;;;;;6.57;3.53;;;;;;;-1.86;93.43;102839.03;5072487;28;20070;-80
2023/04/04 00:20:43;;;;;;;7.45;3.53;;;;;;;-0.85;93.39;103000.66;5072510;28;20469;-79
2023/04/04 00:23:09;;;;;;;8.95;4.40;;;;;;;-0.83;93.06;102997.34;5072537;28;20024;-79
2023/04/04 00:25:35;;;;;;;8.38;3.50;;;;;;;-0.91;92.85;102987.03;5072477;28;20027;-79
2023/04/04 00:28:02;;;;;;;6.85;3.53;;;;;;;-1.40;93.13;102903.25;5072151;28;20116;-80
2023/04/04 00:30:28;;;;;;;7.57;4.00;;;;;;;-1.07;93.82;102966.44;5072504;28;20035;-80
2023/04/04 00:32:54;;;;;;;6.93;3.60;;;;;;;-1.90;92.98;102822.88;5072485;28;20029;-81
2023/04/04 00:35:19;;;;;;;8.93;3.92;;;;;;;-0.81;92.18;103002.44;5072375;28;20051;-80
2023/04/04 00:37:44;;;;;;;7.60;3.80;;;;;;;-0.95;93.00;102992.88;5072564;28;20024;-86
2023/04/04 00:40:10;;;;;;;9.73;3.88;;;;;;;-0.84;92.25;103004.91;5072402;28;20095;-88
2023/04/04 00:42:37;;;;;;;8.15;3.92;;;;;;;-0.81;92.43;103003.28;5072298;28;20487;-85
2023/04/04 00:45:03;;;;;;;8.35;3.80;;;;;;;-1.58;92.48;102876.72;5072319;28;20027;-88
2023/04/04 00:47:32;;;;;;;7.18;3.85;;;;;;;-0.83;91.81;103002.41;5075332;28;20036;-84
2023/04/04 00:49:57;;;;;;;7.40;4.00;;;;;;;-0.85;92.45;102996.47;5076306;28;20509;-81
2023/04/04 00:52:23;;;;;;;8.20;3.90;;;;;;;-1.46;92.62;102893.88;5076390;28;20028;-89
2023/04/04 00:54:48;;;;;;;8.35;4.03;;;;;;;-1.42;92.02;102913.38;5076390;28;20028;-81
2023/04/04 00:57:15;;;;;;;9.32;3.92;;;;;;;-1.17;92.70;102961.19;5076302;28;20024;-86
2023/04/04 00:59:40;;;;;;;7.35;3.97;;;;;;;-0.96;93.10;103010.63;5076031;28;20396;-85
2023/04/04 01:02:06;;;;;;;8.60;3.63;;;;;;;-1.51;92.99;102916.56;5075871;28;20032;-80
2023/04/04 01:04:32;;;;;;;8.73;4.28;;;;;;;-1.38;92.34;102926.94;5076097;28;20034;-81
2023/04/04 01:06:58;;;;;;;7.45;3.60;;;;;;;-0.99;93.26;103000.38;5076094;28;20024;-81
2023/04/04 01:09:25;;;;;;;7.70;3.67;;;;;;;-1.18;93.63;102971.28;5076091;28;20415;-79
2023/04/04 01:11:51;;;;;;;9.52;3.90;;;;;;;-1.07;94.36;102987.59;5075824;28;20366;-79
2023/04/04 01:14:16;;;;;;;8.85;4.15;;;;;;;-1.25;93.27;102965.25;5075894;28;20031;-79
2023/04/04 01:16:42;;;;;;;8.55;3.92;;;;;;;-1.18;94.00;102978.88;5075865;28;20032;-79
2023/04/04 01:19:12;;;;;;;9.15;4.00;;;;;;;-1.50;95.22;102935.16;5075612;28;20048;-80
2023/04/04 01:21:39;;;;;;;7.60;3.70;;;;;;;-1.58;94.57;102913.88;5075972;28;20393;-81
2023/04/04 01:24:07;;;;;;;7.32;3.92;;;;;;;-1.21;94.63;102973.75;5075766;28;20032;-80
2023/04/04 01:26:32;;;;;;;8.20;4.07;;;;;;;-1.26;95.59;102980.44;5075623;28;20031;-80
2023/04/04 01:28:58;;;;;;;9.18;4.22;;;;;;;-1.32;95.89;102977.75;5075301;28;20021;-80
2023/04/04 01:31:37;;;;;;;8.88;4.30;;;;;;;-1.43;96.04;102962.34;5075692;28;20032;-79
2023/04/04 01:34:17;;;;;;;9.75;3.75;;;;;;;-1.51;96.55;102951.19;5075547;28;20141;-81
2023/04/04 01:36:52;;;;;;;7.53;4.03;;;;;;;-1.81;95.99;102895.66;5075549;28;20054;-80
2023/04/04 01:39:32;;;;;;;9.68;4.07;;;;;;;-1.69;95.61;102910.25;5075517;28;20025;-80
2023/04/04 01:42:00;;;;;;;8.20;4.03;;;;;;;-1.69;95.77;102913.66;5075529;28;20382;-80
2023/04/04 01:44:25;;;;;;;6.97;4.05;;;;;;;-1.29;95.62;102971.06;5075319;28;20111;-79
2023/04/04 01:46:54;;;;;;;6.65;4.00;;;;;;;-1.83;95.12;102893.09;5075256;28;20060;-80
2023/04/04 01:49:21;;;;;;;8.27;4.03;;;;;;;-1.52;95.87;102952.00;5075264;28;20024;-79
2023/04/04 01:51:47;;;;;;;7.72;3.92;;;;;;;-1.63;96.83;102948.41;5075255;28;20023;-81
2023/04/04 01:54:13;;;;;;;7.40;3.90;;;;;;;-1.55;97.63;102962.94;5056376;28;20118;-79
2023/04/04 01:56:38;;;;;;;7.43;4.13;;;;;;;-1.62;98.00;102961.09;5075218;28;20055;-80
2023/04/04 01:59:06;;;;;;;7.30;4.20;;;;;;;-1.68;98.19;102963.47;5074663;28;20367;-80
2023/04/04 02:01:32;;;;;;;8.77;3.67;;;;;;;-1.74;98.73;102965.91;5074545;28;20045;-81
2023/04/04 02:03:57;;;;;;;9.23;4.20;;;;;;;-2.02;98.90;102926.44;5074925;28;20473;-80
2023/04/04 02:06:23;;;;;;;9.75;4.75;;;;;;;-1.96;98.87;102936.72;5074857;28;20025;-81
2023/04/04 02:08:48;;;;;;;9.68;5.22;;;;;;;-2.05;98.56;102908.66;5074841;28;20021;-82
2023/04/04 02:11:13;;;;;;;9.45;3.90;;;;;;;-1.74;98.90;102955.75;5075164;28;20032;-80
2023/04/04 02:13:43;;;;;;;8.82;4.32;;;;;;;-1.91;98.51;102941.88;5074737;28;20025;-81
2023/04/04 02:16:08;;;;;;;8.45;4.47;;;;;;;-1.77;98.37;102968.34;5074971;28;20871;-79
2023/04/04 02:18:35;;;;;;;10.45;4.40;;;;;;;-1.83;98.50;102966.53;5074660;28;20045;-81
2023/04/04 02:21:00;;;;;;;8.93;4.53;;;;;;;-1.91;99.14;102973.09;5073887;28;20044;-81
2023/04/04 02:23:26;;;;;;;7.90;4.25;;;;;;;-2.34;99.26;102900.41;5056569;28;20083;-80
2023/04/04 02:25:51;;;;;;;8.93;4.38;;;;;;;-2.37;98.98;102910.41;5074972;28;20052;-81
2023/04/04 02:28:16;;;;;;;10.77;4.43;;;;;;;-2.16;99.62;102951.44;5074405;28;20025;-81
2023/04/04 02:30:42;;;;;;;5.93;3.75;;;;;;;-2.45;99.74;102896.75;5074594;28;20375;-80
2023/04/04 02:33:07;;;;;;;10.73;4.38;;;;;;;-2.46;100.00;102897.56;5074569;28;20520;-81
2023/04/04 02:35:33;;;;;;;9.25;4.10;;;;;;;-1.89;100.00;102993.38;5074476;28;20025;-81
2023/04/04 02:37:58;;;;;;;9.00;4.15;;;;;;;-2.11;100.00;102956.59;5074397;28;20024;-82
2023/04/04 02:40:23;;;;;;;8.65;4.03;;;;;;;-2.09;100.00;102973.53;5073881;28;20111;-81
2023/04/04 02:42:49;;;;;;;6.82;3.95;;;;;;;-2.33;100.00;102938.38;5074455;28;20020;-81
2023/04/04 02:45:14;;;;;;;8.70;4.28;;;;;;;-2.27;100.00;102942.72;5074281;28;20462;-81
2023/04/04 02:47:41;;;;;;;10.23;4.45;;;;;;;-3.24;100.00;102772.66;5074300;28;20024;-82
2023/04/04 02:50:08;;;;;;;8.88;4.28;;;;;;;-2.08;100.00;102972.69;5074309;28;20032;-79
2023/04/04 02:52:33;;;;;;;9.10;4.30;;;;;;;-2.73;100.00;102873.31;5074381;28;20023;-81
2023/04/04 02:54:58;;;;;;;8.85;4.40;;;;;;;-2.17;100.00;102966.56;5074188;28;20032;-91
2023/04/04 02:57:24;;;;;;;8.52;4.68;;;;;;;-2.23;100.00;102957.16;5074277;28;20099;-89
2023/04/04 02:59:49;;;;;;;8.15;4.47;;;;;;;-2.13;100.00;102974.28;5073860;28;20059;-84
2023/04/04 03:02:14;;;;;;;7.68;4.15;;;;;;;-2.14;100.00;102966.66;5074229;28;20078;-93
2023/04/04 03:04:40;;;;;;;8.20;4.47;;;;;;;-2.18;100.00;102970.78;5073883;28;20032;-90
2023/04/04 03:07:07;;;;;;;8.40;4.47;;;;;;;-2.18;100.00;102967.38;5074005;28;20444;-91
2023/04/04 03:09:32;;;;;;;7.95;4.53;;;;;;;-2.23;100.00;102974.88;5073346;28;20023;-91
2023/04/04 03:11:59;;;;;;;8.68;4.50;;;;;;;-2.48;100.00;102922.81;5073790;28;20032;-90
2023/04/04 03:14:25;;;;;;;9.07;4.75;;;;;;;-2.28;100.00;102956.19;5074189;28;20367;-93
2023/04/04 03:16:52;;;;;;;7.53;4.28;;;;;;;-2.65;100.00;102887.03;5073768;28;20470;-90
2023/04/04 03:19:17;;;;;;;7.82;4.43;;;;;;;-2.14;100.00;102971.72;5073559;28;20040;-91
2023/04/04 03:21:42;;;;;;;7.95;4.65;;;;;;;-2.27;100.00;102954.50;5073770;28;20039;-90
2023/04/04 03:24:08;;;;;;;8.55;4.38;;;;;;;-2.22;100.00;102976.59;5073558;28;20111;-92
2023/04/04 03:26:33;;;;;;;8.05;4.50;;;;;;;-2.35;100.00;102959.41;5074321;28;20033;-92
2023/04/04 03:28:59;;;;;;;7.88;4.90;;;;;;;-2.26;100.00;102963.81;5073862;28;20471;-91
2023/04/04 03:31:24;;;;;;;7.68;4.40;;;;;;;-3.47;100.00;102761.09;5054807;28;20052;-91
2023/04/04 03:33:50;;;;;;;7.30;4.57;;;;;;;-2.24;100.00;102964.72;5073507;28;20028;-87
2023/04/04 03:36:15;;;;;;;8.90;4.85;;;;;;;-3.68;100.00;102731.09;5073356;28;20380;-84
2023/04/04 03:38:41;;;;;;;9.65;5.20;;;;;;;-2.81;100.00;102889.97;5073188;28;20081;-90
2023/04/04 03:41:07;;;;;;;9.63;4.78;;;;;;;-2.83;100.00;102890.75;5054988;28;20044;-86
2023/04/04 03:43:33;;;;;;;10.35;4.88;;;;;;;-2.39;100.00;102957.59;5072931;28;20164;-84
2023/04/04 03:46:03;;;;;;;7.90;4.68;;;;;;;-2.37;100.00;102954.28;5072977;28;20024;-90
2023/04/04 03:48:29;;;;;;;9.07;4.97;;;;;;;-2.41;100.00;102959.25;5073050;28;20028;-89
2023/04/04 03:50:57;;;;;;;7.97;5.28;;;;;;;-2.43;100.00;102945.72;5072718;28;20027;-80
2023/04/04 03:53:25;;;;;;;9.77;4.93;;;;;;;-3.77;100.00;102729.19;5072688;28;20024;-89
2023/04/04 03:55:51;;;;;;;11.75;5.60;;;;;;;-2.83;100.00;102886.56;5072893;28;20020;-83
2023/04/04 03:58:16;;;;;;;7.82;4.55;;;;;;;-2.85;100.00;102895.78;5073127;28;20059;-88
2023/04/04 04:00:41;;;;;;;10.00;5.28;;;;;;;-2.54;100.00;102947.13;5072718;28;20108;-85
2023/04/04 04:03:07;;;;;;;9.80;5.25;;;;;;;-2.56;100.00;102949.59;5074592;28;20060;-84
2023/04/04 04:05:32;;;;;;;7.97;4.82;;;;;;;-3.25;100.00;102834.06;5073337;28;20021;-90
2023/04/04 04:07:57;;;;;;;9.05;5.60;;;;;;;-2.57;100.00;102949.56;5072771;28;20440;-83
2023/04/04 04:10:23;;;;;;;8.05;4.50;;;;;;;-2.77;100.00;102929.69;5072695;28;20102;-80
2023/04/04 04:12:48;;;;;;;9.00;5.07;;;;;;;-2.88;100.00;102916.75;5072559;28;20420;-81
2023/04/04 04:15:14;;;;;;;10.07;5.05;;;;;;;-2.79;100.00;102928.78;5072511;28;20043;-79
2023/04/04 04:17:39;;;;;;;12.10;5.63;;;;;;;-2.68;100.00;102951.81;5072330;28;20044;-83
2023/04/04 04:20:07;;;;;;;11.73;5.45;;;;;;;-3.44;100.00;102820.91;5071319;28;20024;-82
2023/04/04 04:22:33;;;;;;;11.27;6.05;;;;;;;-3.56;100.00;102811.34;5071082;28;20036;-80
2023/04/04 04:24:58;;;;;;;10.18;6.10;;;;;;;-2.70;100.00;102946.72;5053752;28;20045;-80
2023/04/04 04:27:23;;;;;;;10.93;7.22;;;;;;;-2.75;100.00;102942.34;5071575;28;20052;-80
2023/04/04 04:29:49;;;;;;;9.55;6.00;;;;;;;-2.77;100.00;102944.84;5071627;28;20052;-80
2023/04/04 04:32:18;;;;;;;10.50;5.95;;;;;;;-2.99;100.00;102912.25;5071804;28;20063;-81
2023/04/04 04:34:43;;;;;;;12.88;6.80;;;;;;;-2.75;100.00;102949.94;5071555;28;20476;-81
2023/04/04 04:37:09;;;;;;;10.60;5.97;;;;;;;-2.91;100.00;102920.88;5071583;28;20017;-81
2023/04/04 04:39:35;;;;;;;13.23;6.35;;;;;;;-2.75;100.00;102937.28;5071525;28;20107;-80
2023/04/04 04:42:01;;;;;;;14.52;6.47;;;;;;;-3.08;100.00;102881.69;5071402;28;20021;-80
2023/04/04 04:44:26;;;;;;;11.10;6.10;;;;;;;-2.74;100.00;102947.47;5071524;28;20029;-80
2023/04/04 04:46:51;;;;;;;10.77;6.03;;;;;;;-3.10;100.00;102889.22;5071250;28;20024;-79
2023/04/04 04:49:17;;;;;;;11.45;5.88;;;;;;;-2.77;100.00;102949.91;5071471;28;20482;-81
2023/04/04 04:51:42;;;;;;;11.45;6.43;;;;;;;-3.09;100.00;102903.56;5071476;28;20032;-84
2023/04/04 04:54:08;;;;;;;11.25;6.85;;;;;;;-3.14;100.00;102899.22;5071587;28;20103;-82
2023/04/04 04:56:33;;;;;;;10.05;5.93;;;;;;;-3.05;100.00;102909.53;5071448;28;20024;-80
2023/04/04 04:58:58;;;;;;;11.88;6.18;;;;;;;-2.82;100.00;102959.06;5071218;28;20106;-82
2023/04/04 05:01:24;;;;;;;11.55;6.28;;;;;;;-2.90;100.00;102942.81;5071036;28;20146;-83
2023/04/04 05:03:50;;;;;;;13.00;6.78;;;;;;;-3.01;100.00;102924.00;5071375;28;20016;-82
2023/04/04 05:06:15;;;;;;;9.70;6.68;;;;;;;-2.74;100.00;102972.75;5071170;28;20437;-81
2023/04/04 05:08:40;;;;;;;13.55;7.72;;;;;;;-2.71;100.00;102972.84;5071056;28;20120;-82
2023/04/04 05:11:06;;;;;;;12.32;6.70;;;;;;;-2.71;100.00;102974.50;5071110;28;20424;-83
2023/04/04 05:13:31;;;;;;;10.68;6.55;;;;;;;-2.74;100.00;102972.75;5070911;28;20031;-82
2023/04/04 05:15:57;;;;;;;11.15;6.50;;;;;;;-2.86;100.00;102962.31;5070496;28;20108;-79
2023/04/04 05:18:22;;;;;;;12.85;7.43;;;;;;;-2.71;100.00;102982.09;5014169;28;1116965;-80
2023/04/04 05:20:53;;;;;;;11.07;7.38;;;;;;;-3.03;100.00;102910.47;5071689;28;20103;-79
2023/04/04 05:23:18;;;;;;;12.43;7.30;;;;;;;-2.65;100.00;102972.16;5070328;28;20442;-79
2023/04/04 05:25:43;;;;;;;10.55;7.13;;;;;;;-2.63;100.00;102973.03;5071513;28;20099;-79
2023/04/04 05:28:09;;;;;;;13.73;7.60;;;;;;;-2.63;100.00;102973.03;5071361;28;20438;-78
2023/04/04 05:30:34;;;;;;;12.25;7.60;;;;;;;-2.88;100.00;102926.03;5071090;28;20028;-79
2023/04/04 05:33:00;;;;;;;10.77;7.18;;;;;;;-2.58;100.00;102970.59;5073647;28;20012;-80
2023/04/04 05:35:25;;;;;;;12.43;7.38;;;;;;;-2.98;100.00;102893.72;5074985;28;20029;-79
2023/04/04 05:37:50;;;;;;;10.23;6.75;;;;;;;-2.47;100.00;102976.78;5075397;28;20027;-78
2023/04/04 05:40:16;;;;;;;10.77;7.43;;;;;;;-2.64;100.00;102941.84;5074887;28;20495;-78
2023/04/04 05:42:41;;;;;;;10.63;7.65;;;;;;;-2.66;100.00;102935.84;5074976;28;20036;-78
2023/04/04 05:45:07;;;;;;;13.65;7.68;;;;;;;-2.38;100.00;102967.75;5074636;28;20462;-79
2023/04/04 05:47:32;;;;;;;11.70;7.63;;;;;;;-2.33;100.00;102968.75;5074814;28;20358;-83
2023/04/04 05:49:58;;;;;;;11.90;7.68;;;;;;;-2.16;100.00;102983.50;5074972;28;20062;-82
2023/04/04 05:52:23;;;;;;;13.80;7.55;;;;;;;-2.04;100.00;102982.09;5074954;28;20028;-82
2023/04/04 05:54:49;;;;;;;10.55;7.68;;;;;;;-2.38;100.00;102909.56;5075069;28;20033;-82
2023/04/04 05:57:15;;;;;;;11.32;7.38;;;;;;;-1.80;100.00;102979.25;5074752;28;20027;-81
2023/04/04 05:59:41;;;;;;;12.00;8.07;;;;;;;-1.90;100.00;102948.63;5074874;28;20107;-80
2023/04/04 06:02:07;;;;;;;12.70;8.02;;;;;;;-1.59;100.00;102983.94;5074173;28;20569;-80
2023/04/04 06:04:32;;;;;;;12.32;8.27;;;;;;;-1.81;100.00;102926.91;5074370;28;20111;-77
2023/04/04 06:06:58;;;;;;;11.77;7.90;;;;;;;-1.55;98.70;102944.34;5074685;28;20111;-79
2023/04/04 06:09:23;;;;;;;12.15;7.60;;;;;;;-1.21;98.36;102988.97;5074395;28;20028;-80
2023/04/04 06:11:49;;;;;;;14.18;8.85;;;;;;;-1.54;97.99;102919.03;5074272;28;20025;-81
2023/04/04 06:14:14;;;;;;;15.18;8.48;;;;;;;-0.98;97.61;102999.59;5074281;28;20039;-79
2023/04/04 06:16:39;;;;;;;14.63;8.45;;;;;;;-0.99;97.30;102935.31;5072159;28;20047;-79
2023/04/04 06:19:05;;;;;;;12.25;8.00;;;;;;;-0.37;95.66;102963.50;5072089;28;20559;-78
2023/04/04 06:21:30;;;;;;;12.82;7.25;;;;;;;-0.08;92.89;102922.47;5073972;28;20086;-81
2023/04/04 06:23:56;;;;;;;11.77;8.30;;;;;;;0.48;90.89;102985.91;5074326;28;20029;-78
2023/04/04 06:26:21;;;;;;;15.43;8.55;;;;;;;0.79;90.20;102993.13;5074254;28;20112;-80
2023/04/04 06:28:50;;;;;;;13.35;8.20;;;;;;;1.75;85.12;102997.47;5074192;28;20435;-81
2023/04/04 06:31:16;;;;;;;14.50;8.57;;;;;;;2.98;81.06;102998.22;5074097;28;20031;-91
2023/04/04 06:33:41;;;;;;;12.98;7.22;;;;;;;4.55;73.61;102974.34;5075154;28;20035;-90
2023/04/04 06:36:07;;;;;;;9.95;6.90;;;;;;;5.90;68.16;102997.41;5075819;28;20028;-87
2023/04/04 06:38:32;;;;;;;11.50;6.53;;;;;;;6.46;62.91;102926.75;5075033;28;20143;-86
2023/04/04 06:40:58;;;;;;;10.85;6.78;;;;;;;7.48;59.42;102992.97;5074417;28;20037;-86
2023/04/04 06:43:24;;;;;;;8.45;5.47;;;;;;;7.78;57.15;102956.50;5073961;28;20103;-86
2023/04/04 06:45:49;;;;;;;8.20;5.40;;;;;;;8.57;54.51;102986.78;5074633;28;20025;-90
2023/04/04 06:48:15;;;;;;;9.05;5.80;;;;;;;8.33;53.57;102871.38;5073180;28;20047;-79
2023/04/04 06:50:40;;;;;;;9.98;5.70;;;;;;;8.86;51.72;102910.63;5075432;28;20393;-80
2023/04/04 06:53:06;;;;;;;11.40;5.50;;;;;;;9.38;49.71;102984.16;5072523;28;20033;-79
2023/04/04 06:55:33;;;;;;;11.98;5.80;;;;;;;9.60;49.72;102964.69;5074055;28;20484;-79
2023/04/04 06:57:58;;;;;;;10.18;5.00;;;;;;;9.92;48.96;102953.56;5074426;28;20021;-89
2023/04/04 07:00:23;;;;;;;8.50;4.82;;;;;;;10.52;47.65;102975.19;5073968;28;20047;-87
2023/04/04 07:02:49;;;;;;;8.82;4.40;;;;;;;11.43;45.54;103002.63;5073903;28;20105;-89
2023/04/04 07:05:16;;;;;;;7.32;4.57;;;;;;;11.14;43.54;102951.81;5075727;28;20024;-92
2023/04/04 07:07:42;;;;;;;12.35;5.70;;;;;;;11.30;44.33;103006.47;5073870;28;20016;-88
2023/04/04 07:10:08;;;;;;;7.80;4.40;;;;;;;10.42;44.24;102947.94;5073789;28;20470;-89
2023/04/04 07:12:33;;;;;;;10.23;5.60;;;;;;;9.59;46.04;102990.53;5055511;28;20035;-81
2023/04/04 07:14:59;;;;;;;8.48;5.32;;;;;;;7.89;49.82;102983.75;5073684;28;20374;-89
2023/04/04 07:17:24;;;;;;;8.05;5.28;;;;;;;6.71;54.52;103012.03;5073238;28;20061;-89
2023/04/04 07:19:50;;;;;;;8.40;4.65;;;;;;;5.32;56.09;102952.59;5073525;28;20108;-89
2023/04/04 07:22:15;;;;;;;10.02;4.60;;;;;;;4.76;58.47;102984.50;5073328;28;20409;-85
2023/04/04 07:24:41;;;;;;;7.78;5.07;;;;;;;4.34;60.34;103005.97;5073181;28;20024;-86
2023/04/04 07:27:06;;;;;;;10.35;5.35;;;;;;;3.95;62.56;102999.19;5055864;28;20063;-87
2023/04/04 07:29:32;;;;;;;9.73;5.40;;;;;;;3.57;64.24;102955.75;5073444;28;20025;-88
2023/04/04 07:31:57;;;;;;;10.60;5.72;;;;;;;3.39;66.15;102941.28;5073434;28;20427;-89
2023/04/04 07:34:24;;;;;;;11.88;5.10;;;;;;;3.64;66.08;102999.22;5073151;28;20027;-80
2023/04/04 07:36:50;;;;;;;9.77;5.90;;;;;;;3.31;66.47;102956.59;5071914;28;20027;-81
2023/04/04 07:39:15;;;;;;;9.13;5.53;;;;;;;3.51;65.45;103000.03;5073046;28;20361;-83
2023/04/04 07:41:41;;;;;;;9.25;5.88;;;;;;;3.12;65.50;102942.94;5073183;28;20466;-80
2023/04/04 07:44:06;;;;;;;10.13;5.03;;;;;;;3.33;64.85;102979.56;5073047;28;20052;-81
2023/04/04 07:46:32;;;;;;;12.43;6.35;;;;;;;3.26;64.34;102977.88;5072924;28;20052;-81
2023/04/04 07:48:57;;;;;;;9.50;4.72;;;;;;;3.37;62.87;102994.06;5072892;28;20055;-79
2023/04/04 07:51:27;;;;;;;8.98;4.80;;;;;;;3.16;64.16;102956.56;5072751;28;20481;-78
2023/04/04 07:53:52;;;;;;;10.05;4.63;;;;;;;3.26;63.59;102967.66;5073154;28;20028;-77
2023/04/04 07:56:18;;;;;;;8.20;5.13;;;;;;;3.49;64.59;102999.19;5072725;28;20044;-79
2023/04/04 07:58:43;;;;;;;9.38;5.30;;;;;;;3.40;65.68;102968.50;5072865;28;20033;-79
2023/04/04 08:01:08;;;;;;;10.40;4.75;;;;;;;3.58;66.09;102976.19;5072837;28;20032;-78
2023/04/04 08:03:34;;;;;;;9.15;5.28;;;;;;;3.55;64.21;102958.31;5072447;28;20528;-76
2023/04/04 08:05:59;;;;;;;11.35;5.05;;;;;;;3.70;64.29;102977.91;5070594;28;20033;-79
2023/04/04 08:08:26;;;;;;;8.52;4.38;;;;;;;3.63;65.30;102950.63;5072615;28;20477;-79
2023/04/04 08:10:51;;;;;;;8.55;4.20;;;;;;;3.98;63.41;103005.16;5072761;28;20062;-75
2023/04/04 08:13:16;;;;;;;10.30;4.93;;;;;;;4.00;62.95;102989.81;5072665;28;20025;-80
2023/04/04 08:15:42;;;;;;;7.78;3.92;;;;;;;4.16;61.15;103000.88;5072683;28;20031;-76
2023/04/04 08:18:08;;;;;;;8.40;3.92;;;;;;;4.03;59.46;102974.47;5072268;28;20047;-79
2023/04/04 08:20:34;;;;;;;6.75;3.63;;;;;;;4.24;59.49;103002.56;5072431;28;20020;-82
2023/04/04 08:22:59;;;;;;;5.68;3.17;;;;;;;4.24;58.72;102994.91;5072516;28;20028;-81
2023/04/04 08:25:25;;;;;;;8.85;4.15;;;;;;;4.23;57.18;103002.59;5072540;28;20104;-80
2023/04/04 08:27:50;;;;;;;5.15;3.47;;;;;;;4.30;58.29;102996.56;5072608;28;20031;-80
2023/04/04 08:30:15;;;;;;;5.60;3.20;;;;;;;4.37;59.03;103000.84;5072606;28;20497;-80
2023/04/04 08:32:43;;;;;;;7.50;3.85;;;;;;;4.25;58.86;102965.91;5072144;28;20111;-81
2023/04/04 08:35:08;;;;;;;8.50;3.38;;;;;;;4.48;57.75;102988.00;5072483;28;20046;-82
2023/04/04 08:37:37;;;;;;;7.55;3.40;;;;;;;4.20;56.77;102936.94;5072291;28;20029;-82
2023/04/04 08:40:03;;;;;;;7.35;3.30;;;;;;;4.53;56.92;102988.88;5072536;28;20063;-83
2023/04/04 08:42:35;;;;;;;6.60;3.33;;;;;;;4.45;54.36;102981.19;5072553;28;20086;-81
2023/04/04 08:45:05;;;;;;;7.78;2.80;;;;;;;4.48;53.96;102980.34;5072548;28;20094;-78
2023/04/04 08:47:31;;;;;;;5.82;2.45;;;;;;;4.12;54.43;102907.13;5054043;28;20021;-80
2023/04/04 08:50:00;;;;;;;6.22;3.33;;;;;;;4.34;55.38;102936.06;5072312;28;20028;-81
2023/04/04 08:52:27;;;;;;;7.78;2.70;;;;;;;4.52;53.95;102953.88;5072368;28;20036;-78
2023/04/04 08:54:53;;;;;;;4.90;2.10;;;;;;;4.26;52.73;102896.00;5072505;28;20484;-79
2023/04/04 08:57:19;;;;;;;7.85;2.30;;;;;;;4.83;52.64;102987.91;5070736;28;20013;-78
2023/04/04 08:59:46;;;;;;;5.93;2.65;;;;;;;4.80;51.82;102988.72;5072984;28;20035;-78
2023/04/04 09:02:24;;;;;;;6.32;2.30;;;;;;;4.75;52.03;102985.38;5072342;28;20115;-78
2023/04/04 09:04:51;;;;;;;7.45;2.80;;;;;;;4.43;51.78;102931.75;5071821;28;20104;-79
2023/04/04 09:07:18;;;;;;;6.20;2.92;;;;;;;4.37;53.81;102905.34;5073213;28;20020;-78
2023/04/04 09:09:45;;;;;;;6.95;2.80;;;;;;;4.95;55.09;102985.28;5076143;28;20509;-80
2023/04/04 09:12:12;;;;;;;6.63;2.80;;;;;;;4.90;51.98;102974.19;5076135;28;20025;-77
2023/04/04 09:14:40;;;;;;;6.90;2.97;;;;;;;4.98;51.50;102984.41;5075763;28;20057;-78
2023/04/04 09:17:07;;;;;;;5.88;2.20;;;;;;;5.06;54.27;102980.09;5075664;28;20029;-79
2023/04/04 09:19:32;;;;;;;5.20;2.30;;;;;;;5.04;52.14;102966.44;5074317;28;20063;-84
2023/04/04 09:21:58;;;;;;;6.30;2.63;;;;;;;5.21;52.51;102985.13;5075848;28;20070;-78
2023/04/04 09:24:23;;;;;;;6.03;2.50;;;;;;;5.22;50.91;102984.28;5075980;28;20017;-79
2023/04/04 09:26:53;;;;;;;5.93;2.53;;;;;;;5.04;50.76;102951.09;5075724;28;20025;-82
2023/04/04 09:29:21;;;;;;;6.35;2.60;;;;;;;5.29;52.93;102987.63;5075489;28;20039;-85
2023/04/04 09:31:48;;;;;;;7.22;2.70;;;;;;;5.35;53.28;102983.31;5057337;28;20032;-84
2023/04/04 09:34:18;;;;;;;8.18;2.90;;;;;;;5.29;51.20;102975.66;5075198;28;20035;-83
2023/04/04 09:36:44;;;;;;;5.95;2.50;;;;;;;4.84;52.83;102897.44;5075728;28;20021;-83
2023/04/04 09:39:10;;;;;;;9.55;2.85;;;;;;;5.39;51.98;102977.31;5076110;28;20021;-81
2023/04/04 09:41:39;;;;;;;7.38;2.70;;;;;;;5.46;52.42;102978.13;5075548;28;20043;-75
2023/04/04 09:44:06;;;;;;;4.38;2.40;;;;;;;5.30;50.07;102948.34;5075471;28;20421;-77
2023/04/04 09:46:34;;;;;;;5.80;2.90;;;;;;;5.52;49.60;102978.09;5075363;28;20086;-78
2023/04/04 09:49:00;;;;;;;5.97;2.58;;;;;;;4.98;50.87;102876.84;5075157;28;20024;-76
2023/04/04 09:51:32;;;;;;;7.47;2.78;;;;;;;5.54;50.96;102952.44;5075489;28;20070;-78
2023/04/04 09:53:58;;;;;;;5.90;2.80;;;;;;;5.53;50.04;102935.38;5075271;28;20024;-77
2023/04/04 09:56:23;;;;;;;8.60;2.83;;;;;;;5.70;49.56;102959.13;5075195;28;20082;-76
2023/04/04 09:58:49;;;;;;;8.88;2.70;;;;;;;5.77;49.15;102965.91;5075242;28;20044;-78
2023/04/04 10:01:16;;;;;;;6.07;2.60;;;;;;;5.58;51.08;102920.78;5075018;28;20037;-77
2023/04/04 10:03:42;;;;;;;6.07;2.40;;;;;;;5.81;50.56;102967.59;5074812;28;20017;-80
2023/04/04 10:06:11;;;;;;;5.72;2.55;;;;;;;5.60;49.76;102926.75;5075081;28;20024;-76
2023/04/04 10:08:39;;;;;;;6.63;2.90;;;;;;;5.72;51.38;102932.63;5075078;28;20017;-74
2023/04/04 10:11:06;;;;;;;6.55;2.63;;;;;;;5.97;50.63;102969.16;5074856;28;20394;-78
2023/04/04 10:13:34;;;;;;;6.50;2.78;;;;;;;5.93;50.93;102947.00;5074974;28;20493;-79
2023/04/04 10:16:02;;;;;;;7.07;2.63;;;;;;;6.09;50.97;102967.34;5074897;28;20110;-76
2023/04/04 10:18:33;;;;;;;8.75;2.78;;;;;;;6.04;48.96;102952.00;5072617;28;20044;-79
2023/04/04 10:21:03;;;;;;;6.75;2.60;;;;;;;5.95;51.00;102918.78;5075136;28;20059;-79
2023/04/04 10:23:29;;;;;;;8.50;3.63;;;;;;;6.18;51.09;102957.00;5074734;28;20032;-75
2023/04/04 10:25:56;;;;;;;5.45;2.80;;;;;;;6.08;50.15;102930.59;5074672;28;20385;-83
2023/04/04 10:28:22;;;;;;;3.80;2.25;;;;;;;6.19;49.51;102946.72;5075075;28;20036;-88
2023/04/04 10:30:51;;;;;;;7.18;2.55;;;;;;;6.27;50.52;102944.06;5074504;28;20376;-85
2023/04/04 10:33:35;;;;;;;10.73;3.00;;;;;;;6.33;51.72;102947.44;5075892;28;20473;-82
2023/04/04 10:36:02;;;;;;;6.70;2.83;;;;;;;6.13;49.98;102908.31;5058169;28;20102;-83
2023/04/04 10:38:34;;;;;;;5.63;2.35;;;;;;;6.41;49.54;102946.50;5074328;28;20028;-84
2023/04/04 10:41:01;;;;;;;7.60;2.50;;;;;;;5.78;51.41;102830.88;5074245;28;20140;-84
2023/04/04 10:43:31;;;;;;;6.57;2.50;;;;;;;6.42;48.55;102946.47;5074352;28;20086;-84
2023/04/04 10:46:03;;;;;;;6.28;3.05;;;;;;;6.44;49.40;102947.31;5074580;28;20037;-86
2023/04/04 10:48:29;;;;;;;6.20;2.83;;;;;;;6.45;49.35;102943.88;5074571;28;20024;-77
2023/04/04 10:50:55;;;;;;;5.55;2.53;;;;;;;6.44;49.18;102944.72;5089855;28;20036;-76
2023/04/04 10:53:22;;;;;;;7.25;2.88;;;;;;;6.39;47.74;102936.25;5074045;28;20024;-76
2023/04/04 10:55:47;;;;;;;6.40;2.70;;;;;;;6.36;48.71;102926.00;5074053;28;20056;-76
2023/04/04 10:58:13;;;;;;;6.40;3.33;;;;;;;6.33;48.51;102920.91;5073840;28;20059;-77
2023/04/04 11:00:51;;;;;;;6.63;2.85;;;;;;;6.36;50.67;102895.22;5073826;28;20017;-78
2023/04/04 11:03:16;;;;;;;7.45;3.63;;;;;;;6.57;48.82;102930.03;5074198;28;20029;-77
2023/04/04 11:05:50;;;;;;;6.75;2.67;;;;;;;6.41;49.25;102898.59;5073643;28;20373;-77
2023/04/04 11:08:19;;;;;;;8.23;3.10;;;;;;;6.49;49.25;102896.78;5073656;28;20028;-77
2023/04/04 11:10:49;;;;;;;7.47;3.08;;;;;;;6.68;49.30;102907.63;5055575;28;20020;-77
2023/04/04 11:13:34;;;;;;;7.57;3.20;;;;;;;6.79;50.02;102910.91;5073546;28;20024;-77
2023/04/04 11:16:02;;;;;;;5.60;2.90;;;;;;;6.81;48.35;102908.31;5073679;28;20092;-80
2023/04/04 11:18:30;;;;;;;9.65;3.28;;;;;;;6.86;49.42;102904.81;5073571;28;20045;-79
2023/04/04 11:20:56;;;;;;;7.88;3.33;;;;;;;6.77;45.64;102904.09;5072475;28;20032;-76